createdAt,value
2018-02-22T00:01:02.951Z,76.60
2018-02-22T00:03:30.576Z,76.50
2018-02-22T00:05:58.177Z,76.40
2018-02-22T00:08:25.759Z,76.50
2018-02-22T00:10:53.407Z,76.40
2018-02-22T00:13:20.986Z,76.50
2018-02-22T00:15:48.592Z,76.30
2018-02-22T00:18:16.195Z,76.20
2018-02-22T00:20:43.995Z,76.20
2018-02-22T00:23:11.599Z,76.30
2018-02-22T00:25:39.195Z,76.20
2018-02-22T00:28:06.802Z,76.10
2018-02-22T00:30:35.156Z,76.10
2018-02-22T00:33:02.746Z,76.00
2018-02-22T00:35:31.078Z,76.00
2018-02-22T00:37:58.664Z,75.90
2018-02-22T00:40:27.551Z,75.90
2018-02-22T00:42:55.130Z,76.10
2018-02-22T00:45:22.713Z,75.60
2018-02-22T00:47:51.079Z,76.50
2018-02-22T00:50:18.654Z,75.70
2018-02-22T00:52:46.231Z,75.50
2018-02-22T00:55:13.816Z,75.60
2018-02-22T00:57:41.421Z,75.40
2018-02-22T01:00:09.018Z,75.50
2018-02-22T01:02:36.609Z,75.40
2018-02-22T01:05:04.218Z,75.30
2018-02-22T01:07:31.800Z,75.50
2018-02-22T01:09:59.374Z,75.30
2018-02-22T01:12:26.970Z,75.40
2018-02-22T01:14:54.566Z,75.40
2018-02-22T01:17:22.142Z,75.20
2018-02-22T01:19:49.768Z,75.30
2018-02-22T01:22:17.372Z,75.30
2018-02-22T01:24:44.971Z,75.50
2018-02-22T01:27:12.576Z,75.40
2018-02-22T01:29:40.143Z,75.50
2018-02-22T01:32:07.755Z,75.50
2018-02-22T01:34:35.398Z,75.50
2018-02-22T01:37:02.995Z,75.60
2018-02-22T01:39:30.591Z,75.60
2018-02-22T01:41:58.187Z,75.70
2018-02-22T01:44:25.761Z,75.80
2018-02-22T01:46:54.229Z,75.60
2018-02-22T01:49:21.839Z,75.70
2018-02-22T01:51:49.444Z,75.60
2018-02-22T01:54:17.050Z,75.60
2018-02-22T01:56:44.640Z,75.70
2018-02-22T01:59:12.270Z,76.00
2018-02-22T02:01:39.854Z,75.70
2018-02-22T02:04:07.602Z,75.70
2018-02-22T02:06:35.230Z,75.80
2018-02-22T02:09:03.681Z,75.80
2018-02-22T02:11:31.288Z,75.80
2018-02-22T02:13:58.856Z,75.70
2018-02-22T02:16:26.455Z,75.70
2018-02-22T02:18:54.071Z,75.80
2018-02-22T02:21:21.667Z,75.80
2018-02-22T02:23:49.252Z,75.70
2018-02-22T02:26:16.864Z,75.60
2018-02-22T02:28:45.223Z,75.60
2018-02-22T02:31:12.819Z,75.60
2018-02-22T02:33:41.175Z,75.50
2018-02-22T02:36:09.482Z,75.50
2018-02-22T02:38:37.891Z,75.40
2018-02-22T02:41:06.253Z,75.50
2018-02-22T02:43:34.628Z,75.50
2018-02-22T02:46:02.222Z,75.50
2018-02-22T02:48:29.921Z,75.50
2018-02-22T02:50:57.509Z,75.70
2018-02-22T02:53:25.098Z,75.70
2018-02-22T02:55:52.700Z,75.60
2018-02-22T02:58:20.301Z,75.60
2018-02-22T03:00:47.899Z,75.70
2018-02-22T03:03:15.590Z,75.60
2018-02-22T03:05:43.173Z,75.60
2018-02-22T03:08:10.749Z,75.60
2018-02-22T03:10:38.319Z,75.70
2018-02-22T03:13:05.930Z,75.60
2018-02-22T03:15:33.535Z,75.60
2018-02-22T03:18:01.724Z,75.60
2018-02-22T03:20:29.922Z,75.60
2018-02-22T03:22:58.276Z,75.60
2018-02-22T03:25:25.872Z,75.60
2018-02-22T03:27:54.250Z,75.70
2018-02-22T03:30:21.845Z,75.70
2018-02-22T03:32:49.440Z,75.80
2018-02-22T03:35:17.028Z,75.90
2018-02-22T03:37:44.641Z,75.70
2018-02-22T03:40:12.226Z,75.70
2018-02-22T03:42:39.841Z,75.60
2018-02-22T03:45:07.424Z,75.60
2018-02-22T03:47:35.765Z,75.70
2018-02-22T03:50:03.403Z,75.70
2018-02-22T03:52:31.005Z,75.80
2018-02-22T03:54:58.594Z,75.90
2018-02-22T03:57:26.962Z,76.10
2018-02-22T03:59:54.552Z,76.00
2018-02-22T04:02:22.932Z,76.30
2018-02-22T04:04:51.270Z,76.10
2018-02-22T04:07:18.855Z,76.10
2018-02-22T04:09:46.460Z,76.40
2018-02-22T04:12:14.081Z,76.20
2018-02-22T04:14:41.696Z,76.50
2018-02-22T04:17:09.279Z,76.60
2018-02-22T04:19:37.661Z,76.60
2018-02-22T04:22:05.251Z,76.50
2018-02-22T04:24:32.840Z,76.60
2018-02-22T04:27:01.191Z,77.00
2018-02-22T04:29:28.779Z,77.00
2018-02-22T04:31:56.388Z,77.10
2018-02-22T04:34:23.999Z,77.10
2018-02-22T04:36:51.572Z,77.10
2018-02-22T04:39:19.195Z,77.30
2018-02-22T04:41:46.771Z,77.30
2018-02-22T04:44:14.348Z,77.50
2018-02-22T04:46:41.924Z,77.20
2018-02-22T04:49:09.584Z,77.30
2018-02-22T04:51:37.172Z,77.40
2018-02-22T04:54:05.580Z,77.40
2018-02-22T04:56:33.911Z,77.50
2018-02-22T04:59:02.288Z,77.50
2018-02-22T05:01:29.852Z,77.50
2018-02-22T05:03:57.431Z,77.60
2018-02-22T05:06:25.052Z,77.60
2018-02-22T05:08:52.623Z,77.60
2018-02-22T05:11:20.204Z,77.60
2018-02-22T05:13:47.867Z,77.60
2018-02-22T05:16:15.458Z,77.60
2018-02-22T05:18:43.048Z,77.60
2018-02-22T05:21:10.641Z,77.70
2018-02-22T05:23:38.985Z,77.70
2018-02-22T05:26:06.596Z,77.70
2018-02-22T05:28:34.220Z,77.70
2018-02-22T05:31:01.796Z,77.70
2018-02-22T05:33:29.363Z,77.60
2018-02-22T05:35:57.706Z,77.40
2018-02-22T05:38:25.284Z,78.40
2018-02-22T05:40:52.866Z,77.70
2018-02-22T05:43:20.453Z,77.70
2018-02-22T05:45:48.789Z,77.90
2018-02-22T05:48:16.480Z,77.90
2018-02-22T05:50:44.063Z,77.90
2018-02-22T05:53:12.419Z,77.90
2018-02-22T05:55:40.019Z,77.90
2018-02-22T05:58:07.654Z,78.00
2018-02-22T06:00:35.224Z,78.10
2018-02-22T06:03:02.803Z,78.00
2018-02-22T06:05:31.161Z,78.20
2018-02-22T06:07:58.739Z,78.20
2018-02-22T06:10:26.324Z,78.10
2018-02-22T06:12:54.668Z,78.20
2018-02-22T06:15:22.237Z,78.20
2018-02-22T06:17:49.851Z,78.30
2018-02-22T06:20:17.408Z,78.20
2018-02-22T06:22:44.986Z,78.30
2018-02-22T06:25:12.565Z,78.40
2018-02-22T06:27:40.157Z,78.30
2018-02-22T06:30:07.759Z,78.30
2018-02-22T06:32:36.107Z,78.50
2018-02-22T06:35:03.717Z,78.50
2018-02-22T06:37:31.283Z,78.50
2018-02-22T06:39:58.853Z,78.40
2018-02-22T06:42:26.430Z,78.60
2018-02-22T06:44:54.026Z,78.50
2018-02-22T06:47:21.632Z,78.50
2018-02-22T06:49:49.969Z,78.40
2018-02-22T06:52:17.576Z,78.40
2018-02-22T06:54:45.905Z,78.40
2018-02-22T06:57:13.478Z,78.40
2018-02-22T06:59:41.047Z,78.40
2018-02-22T07:02:08.644Z,78.40
2018-02-22T07:04:36.215Z,78.40
2018-02-22T07:07:04.656Z,78.20
2018-02-22T07:09:32.241Z,78.30
2018-02-22T07:11:59.827Z,78.10
2018-02-22T07:14:28.183Z,78.00
2018-02-22T07:16:55.789Z,77.90
2018-02-22T07:19:23.369Z,77.90
2018-02-22T07:21:50.949Z,77.70
2018-02-22T07:24:18.537Z,77.60
2018-02-22T07:26:46.111Z,77.60
2018-02-22T07:29:13.732Z,77.60
2018-02-22T07:31:42.239Z,77.40
2018-02-22T07:34:09.813Z,77.20
2018-02-22T07:36:37.414Z,76.40
2018-02-22T07:39:05.034Z,75.90
2018-02-22T07:41:32.870Z,75.60
2018-02-22T07:44:00.471Z,75.80
2018-02-22T07:46:28.102Z,75.60
2018-02-22T07:48:56.197Z,75.20
2018-02-22T07:51:23.790Z,75.00
2018-02-22T07:53:51.382Z,75.10
2018-02-22T07:56:18.976Z,74.80
2018-02-22T07:58:46.591Z,75.00
2018-02-22T08:01:14.207Z,75.10
2018-02-22T08:03:41.844Z,75.00
2018-02-22T08:06:10.246Z,75.10
2018-02-22T08:08:38.637Z,75.10
2018-02-22T08:11:06.457Z,75.10
2018-02-22T08:13:34.088Z,75.10
2018-02-22T08:16:02.078Z,74.60
2018-02-22T08:18:29.663Z,74.70
2018-02-22T08:20:57.640Z,74.50
2018-02-22T08:23:25.210Z,74.50
2018-02-22T08:25:52.788Z,74.50
2018-02-22T08:28:20.379Z,73.80
2018-02-22T08:30:47.962Z,73.80
2018-02-22T08:33:15.589Z,73.90
2018-02-22T08:35:43.179Z,73.90
2018-02-22T08:38:10.768Z,73.50
2018-02-22T08:40:38.359Z,73.50
2018-02-22T08:43:05.954Z,73.50
2018-02-22T08:45:33.567Z,73.30
2018-02-22T08:48:01.199Z,73.20
2018-02-22T08:50:29.547Z,72.60
2018-02-22T08:52:57.159Z,72.60
2018-02-22T08:55:25.381Z,72.60
2018-02-22T08:57:53.084Z,72.30
2018-02-22T09:00:21.537Z,72.30
2018-02-22T09:02:49.145Z,72.20
2018-02-22T09:05:17.504Z,71.60
2018-02-22T09:07:45.130Z,71.60
2018-02-22T09:10:12.741Z,71.50
2018-02-22T09:12:41.112Z,70.90
2018-02-22T09:15:08.725Z,70.70
2018-02-22T09:17:36.313Z,70.90
2018-02-22T09:20:04.608Z,71.10
2018-02-22T09:22:32.207Z,70.10
2018-02-22T09:24:59.887Z,70.10
2018-02-22T09:27:28.248Z,69.70
2018-02-22T09:29:55.858Z,69.70
2018-02-22T09:32:23.463Z,69.50
2018-02-22T09:34:51.073Z,69.40
2018-02-22T09:37:18.691Z,68.50
2018-02-22T09:39:46.340Z,68.40
2018-02-22T09:42:13.955Z,68.40
2018-02-22T09:44:42.334Z,67.00
2018-02-22T09:47:09.915Z,67.00
2018-02-22T09:49:37.588Z,67.40
2018-02-22T09:52:05.213Z,67.10
2018-02-22T09:54:32.902Z,66.60
2018-02-22T09:57:00.494Z,66.70
2018-02-22T09:59:28.077Z,66.10
2018-02-22T10:01:55.654Z,66.00
2018-02-22T10:04:23.257Z,65.30
2018-02-22T10:06:51.609Z,64.90
2018-02-22T10:09:19.249Z,64.90
2018-02-22T10:11:46.851Z,65.10
2018-02-22T10:14:14.451Z,64.80
2018-02-22T10:16:42.023Z,64.20
2018-02-22T10:19:09.645Z,63.90
2018-02-22T10:21:37.260Z,63.90
2018-02-22T10:24:04.842Z,63.00
2018-02-22T10:26:32.438Z,62.90
2018-02-22T10:29:00.010Z,63.00
2018-02-22T10:31:27.592Z,62.10
2018-02-22T10:33:55.936Z,62.30
2018-02-22T10:36:23.518Z,63.10
2018-02-22T10:38:51.152Z,61.90
2018-02-22T10:41:18.762Z,62.70
2018-02-22T10:43:50.489Z,61.90
2018-02-22T10:46:18.198Z,61.30
2018-02-22T10:48:45.794Z,61.60
2018-02-22T10:51:13.391Z,60.90
2018-02-22T10:53:41.011Z,60.20
2018-02-22T10:56:09.209Z,60.20
2018-02-22T10:58:36.795Z,60.10
2018-02-22T11:01:10.082Z,59.20
2018-02-22T11:03:37.680Z,59.00
2018-02-22T11:06:05.260Z,59.10
2018-02-22T11:08:32.851Z,59.70
2018-02-22T11:11:00.472Z,58.80
2018-02-22T11:13:28.046Z,59.20
2018-02-22T11:15:55.630Z,59.10
2018-02-22T11:18:24.066Z,58.10
2018-02-22T11:20:51.695Z,58.00
2018-02-22T11:23:26.571Z,57.40
2018-02-22T11:25:54.162Z,58.40
2018-02-22T11:28:21.773Z,58.00
2018-02-22T11:30:49.372Z,58.40
2018-02-22T11:33:16.969Z,58.00
2018-02-22T11:35:45.440Z,57.10
2018-02-22T11:38:13.024Z,57.00
2018-02-22T11:40:41.402Z,57.10
2018-02-22T11:43:09.816Z,56.10
2018-02-22T11:45:37.425Z,56.10
2018-02-22T11:48:05.030Z,55.90
2018-02-22T11:50:32.622Z,55.60
2018-02-22T11:53:00.204Z,55.50
2018-02-22T11:55:27.797Z,55.50
2018-02-22T11:57:55.406Z,55.00
2018-02-22T12:00:22.984Z,54.10
2018-02-22T12:02:50.616Z,54.10
2018-02-22T12:05:19.018Z,53.00
2018-02-22T12:07:46.614Z,53.00
2018-02-22T12:10:14.220Z,53.40
2018-02-22T12:12:41.866Z,54.00
2018-02-22T12:15:09.443Z,52.90
2018-02-22T12:17:37.805Z,52.60
2018-02-22T12:20:05.526Z,52.40
2018-02-22T12:22:33.092Z,52.10
2018-02-22T12:25:00.667Z,52.70
2018-02-22T12:27:28.265Z,51.00
2018-02-22T12:29:55.881Z,50.90
2018-02-22T12:32:23.509Z,51.00
2018-02-22T12:34:51.137Z,51.10
2018-02-22T12:37:18.749Z,50.80
2018-02-22T12:39:46.338Z,51.40
2018-02-22T12:42:13.952Z,51.10
2018-02-22T12:44:42.187Z,51.30
2018-02-22T12:47:09.778Z,51.60
2018-02-22T12:49:37.378Z,51.20
2018-02-22T12:52:04.990Z,51.80
2018-02-22T12:54:32.593Z,51.60
2018-02-22T12:57:00.156Z,51.00
2018-02-22T12:59:27.806Z,50.80
2018-02-22T13:01:55.413Z,51.50
2018-02-22T13:04:22.979Z,51.60
2018-02-22T13:06:51.359Z,51.40
2018-02-22T13:09:18.955Z,51.40
2018-02-22T13:11:46.515Z,51.60
2018-02-22T13:14:14.118Z,51.90
2018-02-22T13:16:41.722Z,50.40
2018-02-22T13:19:09.272Z,51.10
2018-02-22T13:21:36.891Z,50.90
2018-02-22T13:24:04.477Z,50.10
2018-02-22T13:26:32.052Z,50.30
2018-02-22T13:28:59.652Z,50.20
2018-02-22T13:31:28.073Z,49.70
2018-02-22T13:36:56.928Z,49.00
2018-02-22T13:39:24.521Z,49.00
2018-02-22T13:41:52.137Z,49.90
2018-02-22T13:44:31.643Z,49.50
2018-02-22T13:46:59.256Z,49.80
2018-02-22T13:49:39.561Z,50.00
2018-02-22T13:52:07.149Z,49.30
2018-02-22T13:54:34.743Z,49.20
2018-02-22T13:57:14.213Z,49.80
2018-02-22T13:59:41.800Z,49.40
2018-02-22T14:02:17.293Z,49.30
2018-02-22T14:04:44.900Z,49.70
2018-02-22T14:07:12.473Z,50.30
2018-02-22T14:09:40.081Z,49.60
2018-02-22T14:12:07.664Z,49.60
2018-02-22T14:14:35.996Z,50.10
2018-02-22T14:17:03.591Z,50.00
2018-02-22T14:19:31.190Z,50.40
2018-02-22T14:21:59.556Z,50.30
2018-02-22T14:24:27.937Z,51.10
2018-02-22T14:26:55.518Z,51.10
2018-02-22T14:29:23.109Z,50.70
2018-02-22T14:31:50.729Z,51.30
2018-02-22T14:34:18.309Z,51.10
2018-02-22T14:36:46.676Z,50.90
2018-02-22T14:39:14.307Z,50.90
2018-02-22T14:41:41.877Z,50.90
2018-02-22T14:44:09.508Z,51.60
2018-02-22T14:46:37.096Z,51.50
2018-02-22T14:49:04.728Z,51.90
2018-02-22T14:51:32.326Z,51.60
2018-02-22T14:53:59.942Z,51.50
2018-02-22T14:56:28.370Z,50.90
2018-02-22T14:58:56.648Z,50.90
2018-02-22T15:01:24.245Z,50.70
2018-02-22T15:03:51.839Z,50.20
2018-02-22T15:06:20.220Z,49.70
2018-02-22T15:08:48.582Z,49.40
2018-02-22T15:11:16.164Z,49.40
2018-02-22T15:13:44.528Z,48.70
2018-02-22T15:16:12.123Z,48.70
2018-02-22T15:18:40.515Z,47.20
2018-02-22T15:21:08.182Z,47.10
2018-02-22T15:23:35.739Z,47.50
2018-02-22T15:26:03.353Z,48.20
2018-02-22T15:28:30.959Z,47.30
2018-02-22T15:30:59.334Z,47.90
2018-02-22T15:33:26.922Z,47.90
2018-02-22T15:35:55.263Z,47.90
2018-02-22T15:38:22.940Z,47.90
2018-02-22T15:40:50.512Z,48.10
2018-02-22T15:43:18.091Z,48.80
2018-02-22T15:45:45.712Z,48.70
2018-02-22T15:48:13.296Z,49.70
2018-02-22T15:50:40.894Z,49.60
2018-02-22T15:53:09.264Z,50.10
2018-02-22T15:55:37.459Z,50.20
2018-02-22T15:58:05.817Z,51.20
2018-02-22T16:00:33.397Z,51.20
2018-02-22T16:03:01.769Z,52.00
2018-02-22T16:05:29.372Z,51.90
2018-02-22T16:07:56.934Z,53.40
2018-02-22T16:10:24.508Z,53.10
2018-02-22T16:12:52.098Z,53.30
2018-02-22T16:15:19.684Z,53.60
2018-02-22T16:17:47.282Z,53.40
2018-02-22T16:20:15.657Z,53.90
2018-02-22T16:22:44.082Z,54.00
2018-02-22T16:25:11.779Z,54.00
2018-02-22T16:27:39.361Z,54.40
2018-02-22T16:30:06.941Z,55.00
2018-02-22T16:32:35.752Z,55.60
2018-02-22T16:35:03.382Z,55.60
2018-02-22T16:37:30.941Z,55.60
2018-02-22T16:39:58.507Z,56.10
2018-02-22T16:42:26.087Z,56.20
2018-02-22T16:44:54.455Z,56.70
2018-02-22T16:47:22.056Z,56.60
2018-02-22T16:49:49.654Z,56.60
2018-02-22T16:52:17.256Z,56.90
2018-02-22T16:54:45.644Z,57.20
2018-02-22T16:57:14.042Z,57.50
2018-02-22T16:59:41.629Z,57.40
2018-02-22T17:02:09.208Z,57.70
2018-02-22T17:04:36.860Z,57.90
2018-02-22T17:07:04.455Z,58.10
2018-02-22T17:09:32.117Z,58.20
2018-02-22T17:11:59.715Z,58.50
2018-02-22T17:14:27.278Z,58.50
2018-02-22T17:16:54.869Z,58.70
2018-02-22T17:19:22.485Z,59.30
2018-02-22T17:21:50.085Z,59.00
2018-02-22T17:24:18.421Z,59.30
2018-02-22T17:26:52.161Z,59.30
2018-02-22T17:29:26.439Z,59.60
2018-02-22T17:31:59.575Z,59.80
2018-02-22T17:34:27.987Z,60.80
2018-02-22T17:37:11.290Z,60.10
2018-02-22T17:39:59.473Z,60.00
2018-02-22T17:42:28.596Z,60.20
2018-02-22T17:44:56.255Z,60.20
2018-02-22T17:47:23.881Z,60.40
2018-02-22T17:49:51.450Z,61.40
2018-02-22T17:52:19.052Z,60.70
2018-02-22T17:54:46.644Z,61.00
2018-02-22T17:57:14.265Z,61.10
2018-02-22T17:59:41.893Z,61.50
2018-02-22T18:02:10.273Z,61.90
2018-02-22T18:04:37.848Z,61.90
2018-02-22T18:07:05.429Z,61.90
2018-02-22T18:09:33.053Z,62.10
2018-02-22T18:12:01.468Z,62.00
2018-02-22T18:14:29.070Z,62.00
2018-02-22T18:16:56.630Z,62.10
2018-02-22T18:19:24.232Z,62.20
2018-02-22T18:21:51.800Z,62.30
2018-02-22T18:24:20.176Z,62.50
2018-02-22T18:26:47.841Z,62.50
2018-02-22T18:29:15.434Z,62.70
2018-02-22T18:31:43.782Z,63.00
2018-02-22T18:34:11.353Z,62.90
2018-02-22T18:36:38.940Z,62.80
2018-02-22T18:39:12.897Z,63.10
2018-02-22T18:41:46.098Z,63.10
2018-02-22T18:44:19.281Z,62.80
2018-02-22T18:46:46.859Z,62.90
2018-02-22T18:49:14.452Z,63.20
2018-02-22T18:51:42.712Z,63.40
2018-02-22T18:54:10.301Z,63.50
2018-02-22T18:56:38.655Z,63.50
2018-02-22T18:59:06.251Z,63.40
2018-02-22T19:01:35.323Z,63.40
2018-02-22T19:04:02.906Z,63.30
2018-02-22T19:06:30.484Z,63.60
2018-02-22T19:08:58.068Z,63.70
2018-02-22T19:11:25.676Z,63.50
2018-02-22T19:13:53.272Z,63.80
2018-02-22T19:16:21.634Z,64.10
2018-02-22T19:18:49.266Z,64.00
2018-02-22T19:21:17.658Z,64.40
2018-02-22T19:23:46.043Z,64.60
2018-02-22T19:26:13.657Z,64.60
2018-02-22T19:28:41.238Z,65.10
2018-02-22T19:31:08.859Z,65.10
2018-02-22T19:33:36.450Z,65.20
2018-02-22T19:36:04.887Z,65.80
2018-02-22T19:38:32.492Z,65.80
2018-02-22T19:41:00.828Z,66.10
2018-02-22T19:43:28.399Z,66.10
2018-02-22T19:45:56.012Z,66.20
2018-02-22T19:48:24.404Z,67.60
2018-02-22T19:50:52.774Z,67.20
2018-02-22T19:53:20.342Z,67.20
2018-02-22T19:55:47.934Z,67.60
2018-02-22T19:58:15.534Z,68.00
2018-02-22T20:00:43.134Z,68.50
2018-02-22T20:03:10.737Z,69.10
2018-02-22T20:05:38.342Z,69.30
2018-02-22T20:08:05.928Z,69.70
2018-02-22T20:10:34.302Z,70.60
2018-02-22T20:13:01.904Z,70.60
2018-02-22T20:15:29.502Z,70.90
2018-02-22T20:17:57.097Z,71.20
2018-02-22T20:20:25.484Z,71.70
2018-02-22T20:22:53.089Z,71.70
2018-02-22T20:25:20.667Z,72.10
2018-02-22T20:27:48.255Z,72.40
2018-02-22T20:30:15.897Z,72.70
2018-02-22T20:32:43.465Z,72.90
2018-02-22T20:35:11.034Z,73.30
2018-02-22T20:37:38.601Z,73.70
2018-02-22T20:40:06.204Z,73.80
2018-02-22T20:42:33.792Z,73.90
2018-02-22T20:45:02.172Z,74.30
2018-02-22T20:47:30.536Z,74.50
2018-02-22T20:49:58.132Z,74.40
2018-02-22T20:52:41.089Z,74.60
2018-02-22T20:55:26.536Z,74.60
2018-02-22T20:57:54.145Z,74.70
2018-02-22T21:00:21.740Z,74.90
2018-02-22T21:02:50.098Z,75.00
2018-02-22T21:05:17.683Z,75.10
2018-02-22T21:07:46.946Z,75.50
2018-02-22T21:10:14.543Z,75.40
2018-02-22T21:12:42.185Z,75.70
2018-02-22T21:15:09.809Z,76.00
2018-02-22T21:17:37.388Z,76.30
2018-02-22T21:20:05.015Z,76.60
2018-02-22T21:22:33.468Z,77.20
2018-02-22T21:25:01.049Z,77.10
2018-02-22T21:27:29.447Z,79.00
2018-02-22T21:29:57.053Z,78.20
2018-02-22T21:32:24.670Z,78.80
2018-02-22T21:34:53.086Z,79.40
2018-02-22T21:37:20.703Z,79.40
2018-02-22T21:39:48.305Z,79.70
2018-02-22T21:42:16.658Z,79.90
2018-02-22T21:44:44.272Z,79.80
2018-02-22T21:47:11.876Z,80.00
2018-02-22T21:49:39.491Z,80.20
2018-02-22T21:52:07.081Z,80.40
2018-02-22T21:54:34.799Z,81.20
2018-02-22T21:57:02.525Z,80.80
2018-02-22T21:59:30.131Z,80.80
2018-02-22T22:01:58.327Z,81.10
2018-02-22T22:04:26.687Z,81.00
2018-02-22T22:06:54.268Z,81.00
2018-02-22T22:09:22.631Z,81.60
2018-02-22T22:11:50.238Z,81.60
2018-02-22T22:14:17.866Z,81.90
2018-02-22T22:16:46.250Z,82.00
2018-02-22T22:19:14.647Z,82.90
2018-02-22T22:21:43.076Z,82.50
2018-02-22T22:24:10.676Z,82.50
2018-02-22T22:26:38.276Z,82.50
2018-02-22T22:29:05.904Z,82.70
2018-02-22T22:31:33.872Z,82.60
2018-02-22T22:34:01.473Z,82.80
2018-02-22T22:36:29.845Z,83.00
2018-02-22T22:38:57.487Z,83.00
2018-02-22T22:41:25.097Z,83.10
2018-02-22T22:43:52.705Z,83.50
2018-02-22T22:46:20.283Z,83.40
2018-02-22T22:48:47.957Z,83.50
2018-02-22T22:51:15.551Z,83.60
2018-02-22T22:53:43.164Z,83.50
2018-02-22T22:56:10.764Z,83.70
2018-02-22T22:58:38.366Z,83.90
2018-02-22T23:01:05.960Z,84.10
2018-02-22T23:03:33.551Z,84.10
2018-02-22T23:06:01.146Z,84.00
2018-02-22T23:08:28.758Z,84.00
2018-02-22T23:10:56.406Z,84.30
2018-02-22T23:13:23.990Z,84.20
2018-02-22T23:15:51.595Z,84.20
2018-02-22T23:18:19.220Z,84.30
2018-02-22T23:20:47.430Z,84.40
2018-02-22T23:23:15.020Z,84.40
2018-02-22T23:25:43.417Z,84.70
2018-02-22T23:28:11.033Z,84.50
2018-02-22T23:30:38.615Z,84.50
2018-02-22T23:33:06.191Z,84.70
2018-02-22T23:35:34.540Z,84.80
2018-02-22T23:38:02.761Z,84.80
2018-02-22T23:40:35.190Z,84.90
2018-02-22T23:43:04.567Z,84.80
2018-02-22T23:45:32.210Z,84.80
2018-02-22T23:47:59.811Z,84.60
2018-02-22T23:50:27.426Z,84.60
2018-02-22T23:52:55.799Z,84.80
2018-02-22T23:55:23.443Z,84.80
2018-02-22T23:57:51.030Z,84.60
